Time;durP1;ratioP1;P1;durP2;ratioP2;P2;SDS_P1;SDS_P2;PMS_P1;PMS_P2;Temp;Humidity;BMP_temperature;BMP_pressure;BME280_temperature;BME280_humidity;BME280_pressure;Samples;Min_cycle;Max_cycle;Signal;HPM_P1;HPM_P2
2023/09/12 00:02:03;;;;;;;;;15.60;15.60;;;;;;;;5063528;28;8791;-84
2023/09/12 00:04:31;;;;;;;;;21.40;19.60;;;;;;;;5068726;28;8848;-83
2023/09/12 00:06:58;;;;;;;;;18.20;18.20;;;;;;;;5068437;28;8849;-82
2023/09/12 00:09:27;;;;;;;;;17.40;16.80;;;;;;;;5071589;28;9298;-82
2023/09/12 00:11:54;;;;;;;;;18.00;17.50;;;;;;;;5073169;28;9716;-83
2023/09/12 00:14:22;;;;;;;;;19.50;19.25;;;;;;;;5075118;28;8874;-83
2023/09/12 00:16:52;;;;;;;;;21.50;20.00;;;;;;;;5068537;28;8883;-83
2023/09/12 00:19:19;;;;;;;;;18.25;18.00;;;;;;;;5051214;28;8860;-83
2023/09/12 00:21:47;;;;;;;;;18.50;18.50;;;;;;;;5067743;28;8848;-82
2023/09/12 00:24:14;;;;;;;;;19.25;18.75;;;;;;;;5068752;28;8849;-83
2023/09/12 00:26:42;;;;;;;;;20.25;18.50;;;;;;;;5067673;28;8875;-82
2023/09/12 00:29:10;;;;;;;;;17.50;17.50;;;;;;;;5069629;28;8929;-83
2023/09/12 00:31:37;;;;;;;;;23.75;22.25;;;;;;;;5070392;28;8789;-83
2023/09/12 00:34:04;;;;;;;;;18.25;16.75;;;;;;;;5071126;28;8869;-83
2023/09/12 00:36:33;;;;;;;;;21.25;18.75;;;;;;;;5068907;28;8830;-83
2023/09/12 00:39:07;;;;;;;;;19.00;18.75;;;;;;;;5071862;28;8854;-83
2023/09/12 00:41:35;;;;;;;;;23.00;22.75;;;;;;;;5057422;28;8917;-84
2023/09/12 00:44:04;;;;;;;;;20.00;18.25;;;;;;;;5068705;28;8860;-82
2023/09/12 00:46:34;;;;;;;;;18.75;17.00;;;;;;;;5068230;28;8871;-82
2023/09/12 00:49:02;;;;;;;;;20.00;20.00;;;;;;;;5068610;28;8870;-82
2023/09/12 00:51:31;;;;;;;;;20.75;20.75;;;;;;;;5069090;28;8929;-83
2023/09/12 00:53:58;;;;;;;;;21.50;20.75;;;;;;;;5068179;28;8857;-83
2023/09/12 00:56:25;;;;;;;;;20.75;20.75;;;;;;;;5068519;28;8882;-82
2023/09/12 00:58:52;;;;;;;;;25.25;20.25;;;;;;;;5068001;28;9768;-82
2023/09/12 01:01:22;;;;;;;;;19.25;19.25;;;;;;;;5069101;28;8816;-83
2023/09/12 01:03:51;;;;;;;;;22.00;17.75;;;;;;;;5067182;28;8932;-83
2023/09/12 01:06:20;;;;;;;;;22.50;22.00;;;;;;;;5063523;28;9002;-82
2023/09/12 01:08:48;;;;;;;;;14.50;14.00;;;;;;;;5073498;28;8848;-83
2023/09/12 01:11:15;;;;;;;;;22.25;21.50;;;;;;;;5073918;28;8845;-82
2023/09/12 01:13:42;;;;;;;;;19.75;17.75;;;;;;;;5073312;28;8879;-81
2023/09/12 01:16:10;;;;;;;;;23.00;22.50;;;;;;;;5074124;28;8848;-82
2023/09/12 01:18:39;;;;;;;;;18.25;16.50;;;;;;;;5071212;28;8882;-82
2023/09/12 01:21:42;;;;;;;;;24.00;22.00;;;;;;;;5068500;28;8848;-83
2023/09/12 01:24:31;;;;;;;;;21.50;20.75;;;;;;;;4977972;28;8861;-82
2023/09/12 01:27:17;;;;;;;;;20.00;19.75;;;;;;;;4986208;28;8861;-82
2023/09/12 01:29:47;;;;;;;;;20.00;20.00;;;;;;;;5045819;28;8869;-81
2023/09/12 01:32:15;;;;;;;;;20.75;19.00;;;;;;;;5066908;28;8797;-81
2023/09/12 01:34:43;;;;;;;;;25.50;24.75;;;;;;;;5068223;28;8844;-82
2023/09/12 01:37:11;;;;;;;;;22.75;21.00;;;;;;;;5067495;28;8854;-81
2023/09/12 01:39:39;;;;;;;;;24.00;22.75;;;;;;;;5069109;28;8997;-82
2023/09/12 01:42:07;;;;;;;;;27.50;24.75;;;;;;;;5071106;28;9591;-82
2023/09/12 01:44:36;;;;;;;;;20.75;20.25;;;;;;;;5070996;28;9742;-80
2023/09/12 01:47:09;;;;;;;;;23.75;22.00;;;;;;;;5071236;28;8841;-81
2023/09/12 01:49:40;;;;;;;;;22.25;20.00;;;;;;;;5071291;28;9669;-83
2023/09/12 01:52:07;;;;;;;;;28.00;24.50;;;;;;;;5071235;28;8868;-82
2023/09/12 01:54:35;;;;;;;;;21.50;20.50;;;;;;;;5059980;28;8841;-84
2023/09/12 01:57:06;;;;;;;;;21.75;20.75;;;;;;;;5071175;28;8837;-81
2023/09/12 01:59:34;;;;;;;;;21.25;19.00;;;;;;;;5071701;28;8840;-80
2023/09/12 02:02:07;;;;;;;;;24.75;23.50;;;;;;;;5070861;28;8928;-82
2023/09/12 02:04:34;;;;;;;;;23.50;20.25;;;;;;;;5071777;28;8837;-81
2023/09/12 02:07:02;;;;;;;;;29.50;24.00;;;;;;;;5071879;28;8841;-82
2023/09/12 02:09:30;;;;;;;;;18.75;17.75;;;;;;;;5073744;28;8933;-81
2023/09/12 02:11:57;;;;;;;;;18.25;17.25;;;;;;;;5072585;28;8892;-82
2023/09/12 02:14:24;;;;;;;;;18.50;18.25;;;;;;;;5071931;28;8941;-82
2023/09/12 02:16:53;;;;;;;;;19.75;19.75;;;;;;;;5072188;28;8844;-82
2023/09/12 02:19:20;;;;;;;;;22.00;20.00;;;;;;;;5074613;28;9397;-82
2023/09/12 02:21:47;;;;;;;;;24.25;21.00;;;;;;;;5071712;28;8872;-82
2023/09/12 02:24:15;;;;;;;;;19.00;19.00;;;;;;;;5070856;28;8848;-82
2023/09/12 02:26:42;;;;;;;;;23.25;19.00;;;;;;;;5070682;28;8872;-83
2023/09/12 02:29:10;;;;;;;;;22.25;22.25;;;;;;;;5070076;28;8971;-82
2023/09/12 02:31:37;;;;;;;;;17.25;17.25;;;;;;;;5070484;28;8820;-82
2023/09/12 02:34:06;;;;;;;;;22.50;20.00;;;;;;;;5071389;28;8832;-82
2023/09/12 02:36:33;;;;;;;;;17.25;17.25;;;;;;;;5071378;28;8854;-82
2023/09/12 02:39:01;;;;;;;;;22.75;21.25;;;;;;;;5072801;28;8867;-81
2023/09/12 02:41:28;;;;;;;;;20.25;18.50;;;;;;;;5073913;28;8986;-81
2023/09/12 02:43:55;;;;;;;;;19.25;19.00;;;;;;;;5076238;28;8918;-81
2023/09/12 02:46:22;;;;;;;;;17.00;15.00;;;;;;;;5076210;28;8890;-82
2023/09/12 02:48:49;;;;;;;;;21.00;20.75;;;;;;;;5074974;28;8875;-82
2023/09/12 02:51:18;;;;;;;;;18.75;18.75;;;;;;;;5075857;28;8871;-81
2023/09/12 02:53:45;;;;;;;;;20.50;17.00;;;;;;;;5074729;28;8869;-82
2023/09/12 02:56:13;;;;;;;;;14.25;13.75;;;;;;;;5071313;28;8874;-83
2023/09/12 02:58:40;;;;;;;;;21.00;18.00;;;;;;;;5069834;28;8913;-83
2023/09/12 03:01:07;;;;;;;;;15.00;15.00;;;;;;;;5069778;28;8796;-83
2023/09/12 03:03:35;;;;;;;;;17.75;16.75;;;;;;;;5069849;28;8936;-82
2023/09/12 03:06:03;;;;;;;;;19.75;16.50;;;;;;;;5070037;28;8948;-83
2023/09/12 03:08:34;;;;;;;;;17.00;16.25;;;;;;;;5067835;28;8824;-82
2023/09/12 03:11:02;;;;;;;;;19.25;18.50;;;;;;;;5068435;28;8864;-83
2023/09/12 03:13:30;;;;;;;;;16.00;15.75;;;;;;;;5069366;28;8852;-83
2023/09/12 03:15:57;;;;;;;;;16.50;16.50;;;;;;;;5069453;28;8880;-83
2023/09/12 03:18:24;;;;;;;;;16.75;15.50;;;;;;;;5069069;28;8853;-84
2023/09/12 03:20:52;;;;;;;;;17.00;15.25;;;;;;;;5069703;28;8878;-83
2023/09/12 03:23:19;;;;;;;;;17.75;16.00;;;;;;;;5068715;28;8874;-83
2023/09/12 03:25:48;;;;;;;;;20.25;17.50;;;;;;;;5069394;28;8856;-82
2023/09/12 03:28:15;;;;;;;;;16.50;14.50;;;;;;;;5069329;28;8861;-82
2023/09/12 03:30:43;;;;;;;;;17.75;17.75;;;;;;;;5068713;28;8781;-82
2023/09/12 03:33:10;;;;;;;;;19.00;17.75;;;;;;;;5069384;28;8875;-82
2023/09/12 03:35:38;;;;;;;;;18.00;15.00;;;;;;;;5053059;28;8872;-85
2023/09/12 03:38:05;;;;;;;;;19.25;18.50;;;;;;;;5074551;28;8852;-81
2023/09/12 03:40:33;;;;;;;;;22.75;21.75;;;;;;;;5069369;28;9598;-81
2023/09/12 03:43:02;;;;;;;;;18.00;17.25;;;;;;;;5069159;28;8882;-81
2023/09/12 03:45:29;;;;;;;;;16.00;14.50;;;;;;;;5068568;28;8833;-81
2023/09/12 03:47:56;;;;;;;;;16.75;13.75;;;;;;;;5067530;28;9653;-80
2023/09/12 03:50:24;;;;;;;;;15.75;15.75;;;;;;;;5068337;28;8848;-79
2023/09/12 03:52:51;;;;;;;;;14.75;14.25;;;;;;;;5068509;28;8864;-79
2023/09/12 03:55:18;;;;;;;;;21.75;16.50;;;;;;;;5068135;28;8852;-80
2023/09/12 03:57:45;;;;;;;;;18.25;16.50;;;;;;;;5068685;28;9631;-79
2023/09/12 04:00:15;;;;;;;;;22.00;20.25;;;;;;;;5067305;28;9607;-79
2023/09/12 04:02:42;;;;;;;;;12.50;10.50;;;;;;;;5067330;28;8846;-80
2023/09/12 04:05:10;;;;;;;;;17.75;17.75;;;;;;;;5068276;28;8840;-79
2023/09/12 04:07:37;;;;;;;;;16.75;15.75;;;;;;;;5068391;28;8852;-80
2023/09/12 04:10:05;;;;;;;;;16.75;14.75;;;;;;;;5067214;28;8848;-79
2023/09/12 04:12:35;;;;;;;;;19.25;16.00;;;;;;;;5061556;28;8848;-80
2023/09/12 04:15:02;;;;;;;;;16.75;15.75;;;;;;;;5065391;28;8885;-80
2023/09/12 04:17:31;;;;;;;;;17.75;17.25;;;;;;;;5063404;28;8866;-78
2023/09/12 04:19:58;;;;;;;;;20.25;19.50;;;;;;;;5073100;28;8841;-79
2023/09/12 04:22:25;;;;;;;;;18.25;17.25;;;;;;;;5075314;28;8876;-79
2023/09/12 04:24:52;;;;;;;;;21.00;17.75;;;;;;;;5074090;28;9049;-80
2023/09/12 04:27:19;;;;;;;;;17.25;17.25;;;;;;;;5075145;28;8852;-79
2023/09/12 04:29:49;;;;;;;;;15.50;14.25;;;;;;;;5072496;28;8962;-79
2023/09/12 04:32:23;;;;;;;;;16.75;16.75;;;;;;;;5067359;28;8785;-81
2023/09/12 04:34:52;;;;;;;;;16.25;14.75;;;;;;;;5055860;28;8848;-81
2023/09/12 04:37:20;;;;;;;;;13.25;12.00;;;;;;;;5067703;28;9636;-81
2023/09/12 04:39:50;;;;;;;;;15.50;15.50;;;;;;;;5068412;28;8848;-79
2023/09/12 04:42:17;;;;;;;;;14.67;14.67;;;;;;;;5068117;28;8847;-79
2023/09/12 04:44:44;;;;;;;;;13.75;12.25;;;;;;;;5067556;28;8866;-81
2023/09/12 04:47:12;;;;;;;;;14.25;14.25;;;;;;;;5067544;28;8853;-84
2023/09/12 04:49:39;;;;;;;;;17.75;14.50;;;;;;;;5066915;28;8868;-77
2023/09/12 04:52:08;;;;;;;;;17.75;17.75;;;;;;;;5067731;28;8886;-71
2023/09/12 04:54:36;;;;;;;;;13.50;12.00;;;;;;;;5057428;28;8856;-79
2023/09/12 04:57:06;;;;;;;;;15.50;14.50;;;;;;;;5067345;28;8856;-75
2023/09/12 04:59:33;;;;;;;;;18.75;15.50;;;;;;;;5067668;28;8860;-74
2023/09/12 05:02:01;;;;;;;;;19.50;16.75;;;;;;;;5066488;28;8824;-71
2023/09/12 05:04:30;;;;;;;;;15.50;14.00;;;;;;;;5067223;28;8875;-73
2023/09/12 05:06:57;;;;;;;;;9.25;9.00;;;;;;;;5056339;28;8967;-73
2023/09/12 05:09:28;;;;;;;;;18.00;14.75;;;;;;;;5067171;28;8820;-71
2023/09/12 05:11:55;;;;;;;;;13.00;13.00;;;;;;;;5067288;28;8866;-71
2023/09/12 05:14:22;;;;;;;;;19.00;17.00;;;;;;;;5070450;28;9642;-70
2023/09/12 05:16:49;;;;;;;;;15.50;15.50;;;;;;;;5069471;28;8898;-71
2023/09/12 05:19:17;;;;;;;;;16.60;14.40;;;;;;;;5070752;28;8874;-71
2023/09/12 05:21:44;;;;;;;;;12.00;12.00;;;;;;;;5070585;28;8878;-70
2023/09/12 05:24:12;;;;;;;;;16.00;16.00;;;;;;;;5071203;28;8844;-74
2023/09/12 05:26:40;;;;;;;;;14.25;12.00;;;;;;;;5070588;28;8852;-71
2023/09/12 05:29:07;;;;;;;;;21.00;16.25;;;;;;;;5070541;28;8848;-71
2023/09/12 05:31:35;;;;;;;;;18.25;18.00;;;;;;;;5070702;28;8789;-74
2023/09/12 05:34:03;;;;;;;;;23.50;20.50;;;;;;;;5070189;28;9622;-72
2023/09/12 05:36:30;;;;;;;;;18.50;16.50;;;;;;;;5070937;28;8835;-77
2023/09/12 05:38:57;;;;;;;;;17.75;17.75;;;;;;;;5070353;28;8922;-71
2023/09/12 05:41:26;;;;;;;;;17.75;15.75;;;;;;;;5070168;28;9615;-71
2023/09/12 05:43:54;;;;;;;;;14.00;14.00;;;;;;;;5069283;28;8971;-75
2023/09/12 05:46:21;;;;;;;;;15.75;15.75;;;;;;;;5070473;28;8894;-72
2023/09/12 05:48:49;;;;;;;;;14.25;12.75;;;;;;;;5070567;28;8924;-71
2023/09/12 05:51:16;;;;;;;;;14.25;14.25;;;;;;;;5070934;28;8840;-71
2023/09/12 05:53:43;;;;;;;;;15.75;14.00;;;;;;;;5072783;28;10156;-71
2023/09/12 05:56:10;;;;;;;;;16.75;15.00;;;;;;;;5073392;28;8860;-71
2023/09/12 05:58:41;;;;;;;;;16.25;15.25;;;;;;;;5072946;28;8857;-71
2023/09/12 06:01:10;;;;;;;;;16.00;16.00;;;;;;;;5073130;28;8800;-71
2023/09/12 06:03:37;;;;;;;;;13.80;12.60;;;;;;;;5074290;28;8986;-72
2023/09/12 06:06:05;;;;;;;;;14.75;14.75;;;;;;;;5071366;28;8868;-75
2023/09/12 06:08:35;;;;;;;;;19.25;18.25;;;;;;;;5069424;28;8868;-71
2023/09/12 06:11:02;;;;;;;;;15.00;15.00;;;;;;;;5070960;28;8848;-75
2023/09/12 06:13:30;;;;;;;;;18.50;18.50;;;;;;;;5070333;28;8945;-76
2023/09/12 06:15:57;;;;;;;;;16.75;14.75;;;;;;;;5070862;28;8861;-76
2023/09/12 06:18:31;;;;;;;;;20.50;20.25;;;;;;;;5069358;28;8852;-71
2023/09/12 06:20:58;;;;;;;;;14.00;14.00;;;;;;;;5069516;28;8864;-79
2023/09/12 06:23:27;;;;;;;;;18.75;17.25;;;;;;;;5057855;28;8860;-75
2023/09/12 06:25:54;;;;;;;;;19.25;18.75;;;;;;;;5068538;28;8987;-71
2023/09/12 06:28:29;;;;;;;;;16.00;15.50;;;;;;;;5069466;28;8860;-73
2023/09/12 06:30:57;;;;;;;;;17.75;17.00;;;;;;;;5069036;28;8781;-73
2023/09/12 06:33:28;;;;;;;;;16.75;16.75;;;;;;;;5069291;28;8864;-76
2023/09/12 06:35:56;;;;;;;;;21.25;19.25;;;;;;;;5069656;28;8856;-76
2023/09/12 06:38:24;;;;;;;;;23.50;22.25;;;;;;;;5069599;28;8871;-72
2023/09/12 06:40:51;;;;;;;;;15.25;14.25;;;;;;;;5069198;28;8872;-75
2023/09/12 06:43:18;;;;;;;;;18.00;16.75;;;;;;;;5068388;28;8859;-79
2023/09/12 06:45:46;;;;;;;;;20.25;20.25;;;;;;;;5069194;28;8836;-71
2023/09/12 06:48:13;;;;;;;;;19.75;19.00;;;;;;;;5070645;28;9786;-73
2023/09/12 06:50:44;;;;;;;;;24.25;21.00;;;;;;;;5068390;28;8849;-77
2023/09/12 06:53:14;;;;;;;;;19.25;16.50;;;;;;;;5069841;28;8872;-71
2023/09/12 06:55:50;;;;;;;;;20.75;20.00;;;;;;;;5069102;28;8833;-73
2023/09/12 06:58:17;;;;;;;;;16.25;16.25;;;;;;;;5021411;28;8879;-73
2023/09/12 07:00:47;;;;;;;;;16.50;14.00;;;;;;;;5068180;28;8807;-70
2023/09/12 07:03:14;;;;;;;;;22.00;20.00;;;;;;;;5068721;28;8963;-70
2023/09/12 07:05:44;;;;;;;;;16.50;16.00;;;;;;;;5069250;28;9009;-71
2023/09/12 07:08:11;;;;;;;;;20.25;17.75;;;;;;;;5068894;28;8898;-71
2023/09/12 07:10:46;;;;;;;;;17.75;16.50;;;;;;;;5069006;28;8840;-76
2023/09/12 07:13:15;;;;;;;;;16.00;16.00;;;;;;;;5068786;28;8849;-71
2023/09/12 07:15:42;;;;;;;;;11.00;11.00;;;;;;;;5068933;28;8930;-71
2023/09/12 07:18:10;;;;;;;;;18.75;16.00;;;;;;;;5068460;28;8848;-71
2023/09/12 07:20:37;;;;;;;;;14.00;14.00;;;;;;;;5068769;28;8836;-70
2023/09/12 07:23:05;;;;;;;;;15.50;14.50;;;;;;;;5068693;28;8853;-71
2023/09/12 07:25:38;;;;;;;;;15.25;15.25;;;;;;;;5069563;28;8856;-71
2023/09/12 07:28:06;;;;;;;;;13.40;13.40;;;;;;;;5069338;28;8860;-71
2023/09/12 07:30:33;;;;;;;;;17.25;14.00;;;;;;;;5070357;28;8764;-72
2023/09/12 07:33:00;;;;;;;;;14.00;14.00;;;;;;;;5070950;28;9411;-71
2023/09/12 07:35:27;;;;;;;;;21.25;17.25;;;;;;;;5071499;28;8840;-70
2023/09/12 07:37:54;;;;;;;;;19.60;16.40;;;;;;;;5071904;28;8844;-71
2023/09/12 07:40:23;;;;;;;;;16.00;14.20;;;;;;;;5069248;28;8864;-74
2023/09/12 07:42:50;;;;;;;;;15.75;15.25;;;;;;;;5057375;28;8863;-73
2023/09/12 07:45:17;;;;;;;;;17.00;15.40;;;;;;;;5068097;28;8867;-71
2023/09/12 07:47:47;;;;;;;;;13.80;13.80;;;;;;;;5069225;28;9656;-73
2023/09/12 07:50:16;;;;;;;;;12.80;12.80;;;;;;;;5068018;28;8840;-73
2023/09/12 07:52:43;;;;;;;;;12.80;11.20;;;;;;;;5068748;28;8856;-75
2023/09/12 07:55:11;;;;;;;;;11.20;11.20;;;;;;;;5067498;28;8887;-71
2023/09/12 07:57:39;;;;;;;;;12.80;11.60;;;;;;;;5067809;28;8844;-76
2023/09/12 08:00:10;;;;;;;;;7.60;7.60;;;;;;;;5067884;28;8864;-80
2023/09/12 08:02:37;;;;;;;;;11.00;8.00;;;;;;;;5068484;28;8840;-75
2023/09/12 08:05:05;;;;;;;;;10.40;10.40;;;;;;;;5068129;28;8879;-71
2023/09/12 08:07:32;;;;;;;;;9.00;7.20;;;;;;;;5067889;28;8865;-72
2023/09/12 08:10:00;;;;;;;;;9.20;9.20;;;;;;;;5067579;28;8849;-71
2023/09/12 08:12:28;;;;;;;;;7.60;6.60;;;;;;;;5068249;28;8866;-73
2023/09/12 08:14:57;;;;;;;;;6.00;4.80;;;;;;;;5067549;28;8853;-78
2023/09/12 08:17:25;;;;;;;;;5.40;5.00;;;;;;;;5067878;28;8856;-71
2023/09/12 08:19:52;;;;;;;;;5.80;5.80;;;;;;;;5067803;28;8876;-75
2023/09/12 08:22:19;;;;;;;;;9.20;6.00;;;;;;;;5067688;28;9674;-80
2023/09/12 08:24:47;;;;;;;;;5.40;5.40;;;;;;;;5068004;28;9633;-78
2023/09/12 08:27:14;;;;;;;;;6.80;3.80;;;;;;;;5068876;28;8844;-73
2023/09/12 08:29:44;;;;;;;;;7.60;7.20;;;;;;;;5067771;28;8845;-77
2023/09/12 08:32:13;;;;;;;;;6.00;4.00;;;;;;;;5067628;28;8877;-75
2023/09/12 08:34:40;;;;;;;;;3.00;2.40;;;;;;;;5067173;28;8867;-73
2023/09/12 08:37:07;;;;;;;;;3.20;3.20;;;;;;;;5067327;28;8865;-73
2023/09/12 08:39:43;;;;;;;;;3.60;3.60;;;;;;;;5054904;28;8860;-71
2023/09/12 08:42:13;;;;;;;;;4.60;4.00;;;;;;;;5067940;28;8848;-71
2023/09/12 08:44:41;;;;;;;;;3.40;3.40;;;;;;;;5067837;28;8845;-74
2023/09/12 08:47:10;;;;;;;;;1.00;1.00;;;;;;;;5067668;28;8840;-71
2023/09/12 08:49:42;;;;;;;;;2.20;2.20;;;;;;;;5067364;28;8867;-72
2023/09/12 08:52:09;;;;;;;;;3.60;2.80;;;;;;;;5067503;28;8849;-71
2023/09/12 08:54:36;;;;;;;;;2.40;2.40;;;;;;;;5067396;28;8852;-76
2023/09/12 08:57:06;;;;;;;;;1.40;1.40;;;;;;;;5060328;28;8872;-71
2023/09/12 08:59:35;;;;;;;;;3.00;3.00;;;;;;;;5067465;28;8982;-71
2023/09/12 09:02:02;;;;;;;;;2.00;2.00;;;;;;;;5067337;28;9192;-70
2023/09/12 09:04:33;;;;;;;;;2.80;2.80;;;;;;;;5068742;28;8836;-69
2023/09/12 09:07:02;;;;;;;;;2.20;2.20;;;;;;;;5069454;28;8844;-71
2023/09/12 09:09:30;;;;;;;;;2.20;2.20;;;;;;;;5062667;28;8929;-71
2023/09/12 09:11:57;;;;;;;;;4.60;3.00;;;;;;;;5069894;28;8949;-74
2023/09/12 09:14:24;;;;;;;;;2.00;2.00;;;;;;;;5068695;28;8848;-71
2023/09/12 09:16:51;;;;;;;;;3.00;3.00;;;;;;;;5067359;28;8953;-85
2023/09/12 09:19:19;;;;;;;;;4.20;4.20;;;;;;;;5067635;28;8880;-76
2023/09/12 09:21:47;;;;;;;;;5.40;4.20;;;;;;;;5068501;28;8836;-75
2023/09/12 09:24:17;;;;;;;;;3.20;3.20;;;;;;;;5067558;28;8886;-74
2023/09/12 09:26:46;;;;;;;;;2.80;2.80;;;;;;;;5067495;28;8898;-77
2023/09/12 09:29:16;;;;;;;;;5.20;4.00;;;;;;;;5066923;28;8987;-71
2023/09/12 09:31:44;;;;;;;;;4.00;4.00;;;;;;;;5067973;28;8847;-74
2023/09/12 09:34:15;;;;;;;;;3.00;3.00;;;;;;;;5068193;28;8875;-75
2023/09/12 09:36:43;;;;;;;;;4.80;3.00;;;;;;;;5068499;28;8934;-78
2023/09/12 09:39:13;;;;;;;;;6.20;6.20;;;;;;;;5067280;28;8879;-75
2023/09/12 09:41:42;;;;;;;;;4.20;4.20;;;;;;;;5067485;28;8852;-71
2023/09/12 09:44:09;;;;;;;;;4.40;3.20;;;;;;;;5066942;28;8833;-76
2023/09/12 09:46:37;;;;;;;;;2.20;2.20;;;;;;;;5066706;28;8868;-78
2023/09/12 09:49:06;;;;;;;;;4.60;4.60;;;;;;;;5066879;28;8868;-71
2023/09/12 09:51:33;;;;;;;;;4.00;4.00;;;;;;;;5067078;28;8860;-72
2023/09/12 09:54:00;;;;;;;;;3.60;2.60;;;;;;;;5066597;28;8878;-71
2023/09/12 09:56:27;;;;;;;;;1.20;0.00;;;;;;;;5065422;28;8875;-72
2023/09/12 09:58:57;;;;;;;;;2.20;2.20;;;;;;;;5066635;28;8840;-76
2023/09/12 10:01:28;;;;;;;;;1.20;1.20;;;;;;;;5069333;28;8792;-74
2023/09/12 10:04:00;;;;;;;;;5.00;3.20;;;;;;;;5070574;28;8852;-72
2023/09/12 10:06:28;;;;;;;;;2.00;2.00;;;;;;;;5070099;28;8856;-80
2023/09/12 10:08:56;;;;;;;;;2.00;2.00;;;;;;;;5071027;28;8840;-71
2023/09/12 10:11:25;;;;;;;;;1.00;1.00;;;;;;;;5070003;28;8836;-78
2023/09/12 10:13:56;;;;;;;;;1.00;1.00;;;;;;;;5070616;28;8856;-72
2023/09/12 10:16:25;;;;;;;;;0.40;0.40;;;;;;;;5069011;28;8862;-76
2023/09/12 10:19:00;;;;;;;;;1.00;1.00;;;;;;;;5071004;28;9599;-71
2023/09/12 10:21:31;;;;;;;;;1.40;1.20;;;;;;;;5069579;28;9640;-71
2023/09/12 10:24:00;;;;;;;;;2.00;2.00;;;;;;;;5070139;28;8833;-71
2023/09/12 10:26:28;;;;;;;;;2.00;2.00;;;;;;;;5069918;28;8856;-72
2023/09/12 10:28:56;;;;;;;;;1.00;1.00;;;;;;;;5070252;28;8856;-70
2023/09/12 10:31:25;;;;;;;;;2.00;2.00;;;;;;;;5070677;28;8804;-72
2023/09/12 10:33:53;;;;;;;;;1.80;1.80;;;;;;;;5070185;28;9687;-71
2023/09/12 10:36:21;;;;;;;;;2.00;2.00;;;;;;;;5069828;28;8841;-70
2023/09/12 10:38:49;;;;;;;;;2.00;2.00;;;;;;;;5070637;28;8856;-71
2023/09/12 10:41:17;;;;;;;;;3.00;1.00;;;;;;;;5070518;28;8845;-69
2023/09/12 10:43:49;;;;;;;;;2.80;2.80;;;;;;;;5070035;28;8849;-71
2023/09/12 10:46:18;;;;;;;;;2.00;2.00;;;;;;;;5071000;28;8915;-71
2023/09/12 10:48:45;;;;;;;;;2.40;2.40;;;;;;;;5071659;28;8859;-70
2023/09/12 10:51:13;;;;;;;;;3.20;2.40;;;;;;;;5070901;28;8856;-70
2023/09/12 10:53:48;;;;;;;;;2.20;2.20;;;;;;;;5069486;28;8849;-72
2023/09/12 10:56:18;;;;;;;;;2.60;2.60;;;;;;;;5061030;28;8832;-71
2023/09/12 10:59:12;;;;;;;;;2.20;2.20;;;;;;;;5069276;28;8844;-77
2023/09/12 11:01:42;;;;;;;;;4.00;4.00;;;;;;;;5062563;28;8915;-70
2023/09/12 11:04:33;;;;;;;;;1.80;1.80;;;;;;;;5069427;28;8841;-74
2023/09/12 11:07:00;;;;;;;;;2.40;1.00;;;;;;;;5064978;28;9673;-70
2023/09/12 11:09:28;;;;;;;;;1.20;1.20;;;;;;;;5068587;28;8860;-71
2023/09/12 11:11:59;;;;;;;;;4.20;2.80;;;;;;;;5068513;28;9833;-70
2023/09/12 11:14:26;;;;;;;;;3.00;3.00;;;;;;;;5068069;28;8840;-70
2023/09/12 11:17:25;;;;;;;;;2.60;2.60;;;;;;;;5069465;28;8967;-70
2023/09/12 11:19:53;;;;;;;;;1.80;1.80;;;;;;;;5067647;28;8848;-71
2023/09/12 11:22:25;;;;;;;;;1.20;1.20;;;;;;;;5068440;28;8868;-70
2023/09/12 11:24:53;;;;;;;;;1.80;1.80;;;;;;;;5067478;28;8836;-71
2023/09/12 11:27:20;;;;;;;;;2.00;2.00;;;;;;;;5068478;28;8978;-69
2023/09/12 11:29:48;;;;;;;;;2.60;2.60;;;;;;;;5067596;28;8913;-69
2023/09/12 11:32:37;;;;;;;;;4.20;2.20;;;;;;;;5067485;28;9525;-68
2023/09/12 11:35:07;;;;;;;;;4.40;4.40;;;;;;;;5068678;28;8860;-71
2023/09/12 11:37:36;;;;;;;;;4.60;4.60;;;;;;;;5068312;28;8844;-74
2023/09/12 11:40:08;;;;;;;;;6.20;6.20;;;;;;;;5068369;28;8860;-70
2023/09/12 11:42:41;;;;;;;;;5.80;4.20;;;;;;;;5066684;28;8860;-70
2023/09/12 11:45:10;;;;;;;;;5.80;5.80;;;;;;;;5068480;28;9545;-74
2023/09/12 11:47:42;;;;;;;;;6.00;5.60;;;;;;;;5066335;28;8844;-72
2023/09/12 11:50:10;;;;;;;;;6.00;6.00;;;;;;;;5068135;28;8860;-69
2023/09/12 11:52:39;;;;;;;;;3.80;3.80;;;;;;;;5067881;28;8886;-72
2023/09/12 11:55:07;;;;;;;;;6.00;6.00;;;;;;;;5067940;28;8860;-73
2023/09/12 11:57:35;;;;;;;;;8.40;5.60;;;;;;;;5057352;28;9268;-73
2023/09/12 12:00:08;;;;;;;;;8.40;7.00;;;;;;;;5067966;28;8937;-75
2023/09/12 12:02:35;;;;;;;;;8.80;7.20;;;;;;;;5068232;28;8805;-74
2023/09/12 12:05:07;;;;;;;;;8.20;7.40;;;;;;;;5067781;28;8836;-72
2023/09/12 12:07:34;;;;;;;;;6.00;6.00;;;;;;;;5068137;28;8848;-76
2023/09/12 12:10:03;;;;;;;;;8.40;8.20;;;;;;;;5068254;28;8862;-74
2023/09/12 12:12:31;;;;;;;;;5.60;5.60;;;;;;;;5069612;28;8871;-73
2023/09/12 12:14:58;;;;;;;;;7.60;7.00;;;;;;;;5070520;28;8875;-73
2023/09/12 12:17:25;;;;;;;;;6.20;6.20;;;;;;;;5071279;28;8902;-73
2023/09/12 12:19:52;;;;;;;;;8.80;8.20;;;;;;;;5071442;28;8866;-73
2023/09/12 12:22:21;;;;;;;;;5.00;4.60;;;;;;;;5071714;28;8852;-75
2023/09/12 12:24:51;;;;;;;;;8.20;8.00;;;;;;;;5067274;28;8860;-73
2023/09/12 12:27:18;;;;;;;;;6.60;6.60;;;;;;;;5067852;28;8840;-73
2023/09/12 12:29:45;;;;;;;;;5.00;4.40;;;;;;;;5067936;28;8844;-73
2023/09/12 12:32:16;;;;;;;;;6.00;6.00;;;;;;;;5067917;28;8928;-76
2023/09/12 12:34:43;;;;;;;;;9.00;9.00;;;;;;;;5067869;28;8870;-79
2023/09/12 12:37:12;;;;;;;;;9.60;8.20;;;;;;;;5067206;28;8858;-72
2023/09/12 12:39:44;;;;;;;;;7.20;7.20;;;;;;;;5067550;28;8840;-75
2023/09/12 12:42:11;;;;;;;;;7.40;7.40;;;;;;;;5067649;28;8857;-76
2023/09/12 12:44:40;;;;;;;;;8.80;8.80;;;;;;;;5067109;28;8902;-74
2023/09/12 12:47:09;;;;;;;;;9.00;9.00;;;;;;;;5067146;28;8914;-73
2023/09/12 12:49:38;;;;;;;;;13.80;11.20;;;;;;;;5067050;28;8894;-72
2023/09/12 12:52:06;;;;;;;;;9.00;9.00;;;;;;;;5067030;28;8887;-72
2023/09/12 12:54:34;;;;;;;;;9.00;9.00;;;;;;;;5066569;28;8937;-72
2023/09/12 12:57:03;;;;;;;;;10.60;10.60;;;;;;;;5067192;28;8867;-75
2023/09/12 12:59:34;;;;;;;;;11.80;9.80;;;;;;;;5067095;28;8844;-74
2023/09/12 13:02:02;;;;;;;;;8.20;8.20;;;;;;;;5066376;28;8801;-81
2023/09/12 13:04:35;;;;;;;;;9.60;9.20;;;;;;;;5067277;28;8836;-73
2023/09/12 13:07:03;;;;;;;;;7.00;7.00;;;;;;;;5066822;28;8866;-70
2023/09/12 13:09:30;;;;;;;;;10.20;8.80;;;;;;;;5067038;28;8874;-75
2023/09/12 13:11:57;;;;;;;;;9.80;9.80;;;;;;;;5066964;28;8863;-72
2023/09/12 13:14:30;;;;;;;;;10.20;8.20;;;;;;;;5066833;28;8840;-71
2023/09/12 13:16:58;;;;;;;;;10.80;10.80;;;;;;;;5055420;28;8844;-73
2023/09/12 13:19:25;;;;;;;;;8.00;8.00;;;;;;;;5066488;28;8852;-74
2023/09/12 13:21:52;;;;;;;;;9.80;9.80;;;;;;;;5067552;28;8840;-71
2023/09/12 13:24:19;;;;;;;;;11.60;10.20;;;;;;;;5066522;28;8872;-72
2023/09/12 13:26:46;;;;;;;;;9.80;9.80;;;;;;;;5066905;28;9576;-71
2023/09/12 13:29:14;;;;;;;;;9.20;7.80;;;;;;;;5066611;28;8860;-71
2023/09/12 13:31:42;;;;;;;;;7.40;6.60;;;;;;;;5067342;28;9686;-73
2023/09/12 13:34:09;;;;;;;;;10.40;8.40;;;;;;;;5066377;28;8873;-72
2023/09/12 13:36:36;;;;;;;;;8.20;8.20;;;;;;;;5070285;28;8869;-72
2023/09/12 13:39:06;;;;;;;;;8.00;7.20;;;;;;;;5070746;28;8852;-71
2023/09/12 13:41:33;;;;;;;;;7.20;4.40;;;;;;;;5070767;28;8844;-71
2023/09/12 13:44:00;;;;;;;;;9.40;9.40;;;;;;;;5071330;28;8841;-71
2023/09/12 13:46:27;;;;;;;;;9.40;8.80;;;;;;;;5072600;28;8851;-73
2023/09/12 13:49:00;;;;;;;;;12.00;11.00;;;;;;;;5072323;28;8874;-70
2023/09/12 13:51:27;;;;;;;;;11.60;10.40;;;;;;;;5073344;28;8921;-72
2023/09/12 13:53:54;;;;;;;;;10.60;7.20;;;;;;;;5072661;28;8852;-71
2023/09/12 13:56:21;;;;;;;;;6.80;6.80;;;;;;;;5073819;28;8864;-72
2023/09/12 13:58:48;;;;;;;;;3.80;3.80;;;;;;;;5071421;28;8841;-72
2023/09/12 14:01:18;;;;;;;;;9.60;8.20;;;;;;;;5070015;28;9453;-70
2023/09/12 14:03:45;;;;;;;;;5.20;5.20;;;;;;;;5069885;28;8852;-71
2023/09/12 14:06:13;;;;;;;;;8.00;7.20;;;;;;;;5070060;28;8864;-71
2023/09/12 14:08:41;;;;;;;;;8.00;8.00;;;;;;;;5057657;28;8959;-74
2023/09/12 14:11:08;;;;;;;;;7.40;6.00;;;;;;;;5069892;28;8840;-71
2023/09/12 14:13:35;;;;;;;;;10.20;10.00;;;;;;;;5069890;28;8848;-77
2023/09/12 14:16:02;;;;;;;;;8.80;7.00;;;;;;;;5069649;28;8861;-72
2023/09/12 14:18:29;;;;;;;;;8.40;7.80;;;;;;;;5069448;28;8875;-74
2023/09/12 14:20:56;;;;;;;;;5.20;5.20;;;;;;;;5069837;28;8867;-70
2023/09/12 14:23:25;;;;;;;;;6.00;6.00;;;;;;;;5057611;28;8880;-73
2023/09/12 14:25:52;;;;;;;;;8.20;8.20;;;;;;;;5070281;28;8858;-71
2023/09/12 14:28:19;;;;;;;;;9.80;7.00;;;;;;;;5070028;28;8941;-72
2023/09/12 14:30:48;;;;;;;;;7.00;6.40;;;;;;;;5069721;28;8788;-70
2023/09/12 14:33:17;;;;;;;;;8.60;8.60;;;;;;;;5069191;28;8852;-70
2023/09/12 14:35:44;;;;;;;;;5.80;5.80;;;;;;;;5069535;28;9627;-76
2023/09/12 14:38:13;;;;;;;;;8.40;8.40;;;;;;;;5070033;28;8858;-71
2023/09/12 14:40:42;;;;;;;;;6.60;6.60;;;;;;;;5069397;28;8895;-72
2023/09/12 14:43:09;;;;;;;;;6.00;6.00;;;;;;;;5069470;28;8848;-72
2023/09/12 14:45:36;;;;;;;;;6.60;6.60;;;;;;;;5067895;28;8836;-73
2023/09/12 14:48:04;;;;;;;;;9.40;8.80;;;;;;;;5069099;28;8840;-71
2023/09/12 14:50:31;;;;;;;;;9.80;8.20;;;;;;;;5068556;28;8840;-72